createdAt,value
2019-01-16T00:00:42.095Z,7.24
2019-01-16T00:03:34.830Z,7.13
2019-01-16T00:06:13.219Z,7.14
2019-01-16T00:09:05.577Z,7.12
2019-01-16T00:11:44.178Z,7.22
2019-01-16T00:14:49.344Z,7.11
2019-01-16T00:17:35.616Z,7.11
2019-01-16T00:20:55.712Z,7.03
2019-01-16T00:23:48.211Z,7.02
2019-01-16T00:26:40.781Z,7.02
2019-01-16T00:29:19.898Z,7.04
2019-01-16T00:32:18.859Z,7.04
2019-01-16T00:35:05.477Z,7.05
2019-01-16T00:37:58.177Z,6.98
2019-01-16T00:41:02.947Z,6.92
2019-01-16T00:43:48.223Z,6.96
2019-01-16T00:46:41.043Z,7.02
2019-01-16T00:49:46.622Z,7.08
2019-01-16T00:52:33.305Z,7.00
2019-01-16T00:55:17.857Z,6.95
2019-01-16T00:58:07.051Z,6.99
2019-01-16T01:01:01.463Z,7.03
2019-01-16T01:03:54.269Z,6.95
2019-01-16T01:06:40.969Z,7.00
2019-01-16T01:09:27.838Z,7.01
2019-01-16T01:12:26.864Z,6.98
2019-01-16T01:15:19.376Z,6.89
2019-01-16T01:18:40.697Z,6.86
2019-01-16T01:21:22.624Z,6.82
2019-01-16T01:24:10.726Z,6.82
2019-01-16T01:27:08.537Z,6.81
2019-01-16T01:30:01.081Z,6.82
2019-01-16T01:32:56.073Z,6.80
2019-01-16T01:35:42.724Z,6.80
2019-01-16T01:38:32.362Z,6.84
2019-01-16T01:41:17.966Z,6.83
2019-01-16T01:43:55.028Z,6.78
2019-01-16T01:46:33.691Z,6.79
2019-01-16T01:49:08.682Z,6.76
2019-01-16T01:51:44.879Z,6.80
2019-01-16T01:54:27.667Z,6.78
2019-01-16T01:57:10.410Z,6.76
2019-01-16T02:00:09.396Z,6.74
2019-01-16T02:02:55.287Z,6.71
2019-01-16T02:06:00.242Z,6.70
2019-01-16T02:08:59.074Z,6.79
2019-01-16T02:11:42.701Z,6.76
2019-01-16T02:14:38.633Z,6.76
2019-01-16T02:17:28.000Z,6.79
2019-01-16T02:20:51.258Z,6.82
2019-01-16T02:23:36.784Z,6.76
2019-01-16T02:26:22.360Z,6.79
2019-01-16T02:29:20.743Z,6.74
2019-01-16T02:32:10.561Z,6.76
2019-01-16T02:35:00.519Z,6.78
2019-01-16T02:37:45.994Z,6.63
2019-01-16T02:40:30.131Z,6.57
2019-01-16T02:43:13.991Z,6.52
2019-01-16T02:46:13.873Z,6.42
2019-01-16T02:48:56.106Z,6.46
2019-01-16T02:51:43.975Z,6.35
2019-01-16T02:54:29.306Z,6.42
2019-01-16T02:57:09.865Z,6.37
2019-01-16T03:00:08.458Z,6.29
2019-01-16T03:03:00.929Z,6.29
2019-01-16T03:05:59.652Z,6.30
2019-01-16T03:08:52.324Z,6.22
2019-01-16T03:11:41.830Z,6.22
2019-01-16T03:14:28.792Z,6.19
2019-01-16T03:17:26.725Z,6.17
2019-01-16T03:20:05.476Z,6.14
2019-01-16T03:22:51.136Z,6.12
2019-01-16T03:25:36.547Z,6.14
2019-01-16T03:28:22.151Z,6.10
2019-01-16T03:31:01.470Z,6.08
2019-01-16T03:33:48.096Z,6.24
2019-01-16T03:36:25.340Z,6.14
2019-01-16T03:39:12.070Z,6.13
2019-01-16T03:41:58.721Z,6.20
2019-01-16T03:44:31.761Z,6.18
2019-01-16T03:47:19.653Z,6.18
2019-01-16T03:50:06.266Z,6.21
2019-01-16T03:52:51.814Z,6.20
2019-01-16T03:55:50.851Z,6.23
2019-01-16T03:58:52.687Z,6.23
2019-01-16T04:01:39.300Z,6.24
2019-01-16T04:04:35.699Z,6.21
2019-01-16T04:07:24.554Z,6.20
2019-01-16T04:10:06.668Z,6.21
2019-01-16T04:12:40.516Z,6.19
2019-01-16T04:15:45.953Z,6.18
2019-01-16T04:18:47.679Z,6.17
2019-01-16T04:21:37.205Z,6.19
2019-01-16T04:24:24.018Z,6.22
2019-01-16T04:27:09.264Z,6.21
2019-01-16T04:29:56.106Z,6.26
2019-01-16T04:32:50.427Z,6.29
2019-01-16T04:35:40.069Z,6.28
2019-01-16T04:38:26.707Z,6.34
2019-01-16T04:41:24.208Z,6.34
2019-01-16T04:44:19.683Z,6.39
2019-01-16T04:47:15.311Z,6.37
2019-01-16T04:49:50.762Z,6.36
2019-01-16T04:52:37.249Z,6.34
2019-01-16T04:55:22.939Z,6.42
2019-01-16T04:58:08.361Z,6.45
2019-01-16T05:01:07.166Z,6.48
2019-01-16T05:03:55.999Z,6.43
2019-01-16T05:06:57.676Z,6.46
2019-01-16T05:09:43.284Z,6.52
2019-01-16T05:12:47.267Z,6.53
2019-01-16T05:15:36.973Z,6.50
2019-01-16T05:18:29.148Z,6.53
2019-01-16T05:21:18.559Z,6.50
2019-01-16T05:24:09.905Z,6.50
2019-01-16T05:26:58.795Z,6.54
2019-01-16T05:29:45.793Z,6.56
2019-01-16T05:32:32.319Z,6.53
2019-01-16T05:35:18.963Z,6.56
2019-01-16T05:38:03.697Z,6.56
2019-01-16T05:41:05.675Z,6.56
2019-01-16T05:43:52.336Z,6.58
2019-01-16T05:46:37.732Z,6.53
2019-01-16T05:49:30.668Z,6.48
2019-01-16T05:52:20.205Z,6.61
2019-01-16T05:55:09.624Z,6.56
2019-01-16T05:57:57.347Z,6.53
2019-01-16T06:00:40.401Z,6.53
2019-01-16T06:03:39.134Z,6.53
2019-01-16T06:06:24.416Z,6.56
2019-01-16T06:09:17.056Z,6.54
2019-01-16T06:12:05.469Z,6.57
2019-01-16T06:14:57.882Z,6.50
2019-01-16T06:17:53.889Z,6.52
2019-01-16T06:20:48.278Z,6.56
2019-01-16T06:23:38.088Z,6.52
2019-01-16T06:26:23.498Z,6.60
2019-01-16T06:29:16.689Z,6.55
2019-01-16T06:32:15.698Z,6.56
2019-01-16T06:35:01.193Z,6.59
2019-01-16T06:37:50.859Z,6.56
2019-01-16T06:40:40.305Z,6.59
2019-01-16T06:43:25.567Z,6.56
2019-01-16T06:46:18.600Z,6.58
2019-01-16T06:49:11.282Z,6.65
2019-01-16T06:52:09.900Z,6.64
2019-01-16T06:54:59.295Z,6.58
2019-01-16T06:57:43.031Z,6.64
2019-01-16T07:00:34.247Z,6.61
2019-01-16T07:03:39.311Z,6.57
2019-01-16T07:06:39.980Z,6.63
2019-01-16T07:09:27.212Z,6.67
2019-01-16T07:12:12.850Z,6.71
2019-01-16T07:14:58.376Z,6.65
2019-01-16T07:17:41.645Z,6.65
2019-01-16T07:20:43.707Z,6.65
2019-01-16T07:23:48.613Z,6.70
2019-01-16T07:26:38.861Z,6.60
2019-01-16T07:29:24.165Z,6.59
2019-01-16T07:32:17.031Z,6.64
2019-01-16T07:35:00.688Z,6.70
2019-01-16T07:37:48.961Z,6.65
2019-01-16T07:40:34.269Z,6.63
2019-01-16T07:43:09.582Z,6.60
2019-01-16T07:45:47.474Z,6.56
2019-01-16T07:48:37.068Z,6.58
2019-01-16T07:51:32.703Z,6.56
2019-01-16T07:54:28.732Z,6.58
2019-01-16T07:57:18.121Z,6.63
2019-01-16T08:00:04.779Z,6.62
2019-01-16T08:04:30.369Z,6.79
2019-01-16T08:07:21.137Z,6.63
2019-01-16T08:10:08.393Z,6.63
2019-01-16T08:12:58.061Z,6.62
2019-01-16T08:15:50.719Z,6.68
2019-01-16T08:18:26.822Z,6.69
2019-01-16T08:21:12.171Z,6.63
2019-01-16T08:24:01.843Z,6.65
2019-01-16T08:26:55.441Z,6.61
2019-01-16T08:29:42.195Z,6.55
2019-01-16T08:32:28.833Z,6.61
2019-01-16T08:35:14.292Z,6.56
2019-01-16T08:37:59.812Z,6.56
2019-01-16T08:40:38.541Z,6.59
2019-01-16T08:43:23.395Z,6.61
2019-01-16T08:46:10.230Z,6.62
2019-01-16T08:48:51.403Z,6.61
2019-01-16T08:51:47.344Z,6.55
2019-01-16T08:54:49.128Z,6.54
2019-01-16T08:57:38.595Z,6.64
2019-01-16T09:00:27.975Z,6.62
2019-01-16T09:03:14.665Z,6.60
2019-01-16T09:06:00.161Z,6.74
2019-01-16T09:08:40.985Z,6.77
2019-01-16T09:11:26.271Z,6.70
2019-01-16T09:14:04.997Z,6.66
2019-01-16T09:16:42.830Z,6.73
2019-01-16T09:19:36.377Z,6.68
2019-01-16T09:22:21.446Z,6.60
2019-01-16T09:25:05.916Z,6.62
2019-01-16T09:27:58.494Z,6.67
2019-01-16T09:31:07.277Z,6.72
2019-01-16T09:33:52.571Z,6.71
2019-01-16T09:36:38.211Z,6.68
2019-01-16T09:39:17.860Z,6.69
2019-01-16T09:42:11.832Z,6.64
2019-01-16T09:44:57.112Z,6.65
2019-01-16T09:47:42.682Z,6.55
2019-01-16T09:50:18.652Z,6.64
2019-01-16T09:53:17.484Z,6.57
2019-01-16T09:56:02.740Z,6.61
2019-01-16T09:59:04.720Z,6.58
2019-01-16T10:01:45.944Z,6.54
2019-01-16T10:04:32.808Z,6.73
2019-01-16T10:07:09.971Z,6.70
2019-01-16T10:09:55.238Z,6.60
2019-01-16T10:12:50.936Z,6.63
2019-01-16T10:15:35.814Z,6.75
2019-01-16T10:18:28.393Z,6.57
2019-01-16T10:21:13.629Z,6.61
2019-01-16T10:24:37.375Z,6.67
2019-01-16T10:27:25.139Z,6.74
2019-01-16T10:30:18.786Z,6.65
2019-01-16T10:33:08.319Z,6.73
2019-01-16T10:35:55.096Z,6.86
2019-01-16T10:38:40.435Z,6.78
2019-01-16T10:41:26.936Z,6.83
2019-01-16T10:44:12.719Z,6.87
2019-01-16T10:47:19.192Z,6.80
2019-01-16T10:50:12.176Z,6.82
2019-01-16T10:56:33.756Z,6.85
2019-01-16T10:59:20.438Z,6.80
2019-01-16T11:02:10.237Z,6.84
2019-01-16T11:05:15.396Z,6.91
2019-01-16T11:08:07.975Z,6.92
2019-01-16T11:10:53.457Z,6.82
2019-01-16T11:13:39.184Z,6.90
2019-01-16T11:16:27.155Z,6.88
2019-01-16T11:22:09.648Z,6.95
2019-01-16T11:25:04.171Z,6.90
2019-01-16T11:28:03.260Z,6.87
2019-01-16T11:30:50.010Z,6.89
2019-01-16T11:33:33.464Z,6.94
2019-01-16T11:36:19.060Z,6.81
2019-01-16T11:39:21.068Z,6.81
2019-01-16T11:42:28.615Z,6.86
2019-01-16T11:45:24.330Z,6.81
2019-01-16T11:48:09.669Z,6.82
2019-01-16T11:51:08.547Z,6.87
2019-01-16T11:54:04.187Z,6.76
2019-01-16T11:56:50.888Z,6.78
2019-01-16T11:59:40.401Z,6.79
2019-01-16T12:02:30.102Z,6.87
2019-01-16T12:05:14.281Z,6.82
2019-01-16T12:07:59.474Z,6.88
2019-01-16T12:10:54.788Z,6.80
2019-01-16T12:13:47.448Z,6.89
2019-01-16T12:16:34.074Z,6.69
2019-01-16T12:19:20.991Z,6.68
2019-01-16T12:21:59.472Z,6.72
2019-01-16T12:24:44.807Z,6.68
2019-01-16T12:27:49.868Z,6.76
2019-01-16T12:30:38.136Z,6.64
2019-01-16T12:33:37.025Z,6.58
2019-01-16T12:36:26.903Z,6.68
2019-01-16T12:39:25.529Z,6.62
2019-01-16T12:42:17.884Z,6.64
2019-01-16T12:45:03.817Z,6.77
2019-01-16T12:47:43.821Z,6.69
2019-01-16T12:50:31.001Z,6.73
2019-01-16T12:53:04.853Z,6.83
2019-01-16T12:55:49.966Z,6.89
2019-01-16T12:58:39.386Z,6.98
2019-01-16T13:01:41.410Z,6.85
2019-01-16T13:04:28.067Z,6.85
2019-01-16T13:10:08.415Z,6.79
2019-01-16T13:12:59.753Z,6.73
2019-01-16T13:15:43.676Z,6.72
2019-01-16T13:18:25.588Z,6.70
2019-01-16T13:21:11.004Z,6.76
2019-01-16T13:23:56.586Z,6.70
2019-01-16T13:26:36.770Z,6.62
2019-01-16T13:29:26.202Z,6.56
2019-01-16T13:32:19.843Z,6.58
2019-01-16T13:35:12.723Z,6.63
2019-01-16T13:38:08.732Z,6.53
2019-01-16T13:41:07.459Z,6.56
2019-01-16T13:43:54.080Z,6.69
2019-01-16T13:46:46.357Z,6.67
2019-01-16T13:49:35.860Z,6.80
2019-01-16T13:52:21.678Z,6.66
2019-01-16T13:55:08.333Z,6.74
2019-01-16T13:57:53.584Z,6.78
2019-01-16T14:00:39.176Z,6.74
2019-01-16T14:03:27.663Z,6.72
2019-01-16T14:06:13.307Z,6.67
2019-01-16T14:08:58.758Z,6.63
2019-01-16T14:12:03.937Z,6.68
2019-01-16T14:14:41.613Z,6.62
2019-01-16T14:17:37.152Z,6.73
2019-01-16T14:20:30.085Z,6.86
2019-01-16T14:23:22.580Z,6.75
2019-01-16T14:26:08.025Z,6.84
2019-01-16T14:29:11.505Z,6.74
2019-01-16T14:31:55.462Z,6.75
2019-01-16T14:34:35.168Z,6.70
2019-01-16T14:37:20.599Z,6.68
2019-01-16T14:40:22.684Z,6.72
2019-01-16T14:43:15.563Z,6.61
2019-01-16T14:46:12.435Z,6.63
2019-01-16T14:49:03.746Z,6.62
2019-01-16T14:51:59.593Z,6.65
2019-01-16T14:54:55.815Z,6.60
2019-01-16T14:57:48.474Z,6.64
2019-01-16T15:00:29.388Z,6.56
2019-01-16T15:06:31.405Z,6.53
2019-01-16T15:09:16.581Z,6.49
2019-01-16T15:12:03.430Z,6.47
2019-01-16T15:14:59.049Z,6.41
2019-01-16T15:17:44.478Z,6.45
2019-01-16T15:20:22.539Z,6.42
2019-01-16T15:23:12.556Z,6.38
2019-01-16T15:26:01.999Z,6.40
2019-01-16T15:28:45.947Z,6.43
2019-01-16T15:31:38.610Z,6.39
2019-01-16T15:34:43.665Z,6.39
2019-01-16T15:37:20.007Z,6.34
2019-01-16T15:40:06.650Z,6.35
2019-01-16T15:42:57.511Z,6.36
2019-01-16T15:45:44.276Z,6.30
2019-01-16T15:48:37.205Z,6.29
2019-01-16T15:51:29.758Z,6.31
2019-01-16T15:54:58.565Z,6.31
2019-01-16T15:57:51.545Z,6.32
2019-01-16T16:00:53.263Z,6.27
2019-01-16T16:03:37.461Z,6.27
2019-01-16T16:06:27.091Z,6.30
2019-01-16T16:09:11.098Z,6.21
2019-01-16T16:11:57.762Z,6.09
2019-01-16T16:14:44.470Z,6.09
2019-01-16T16:17:33.992Z,6.00
2019-01-16T16:20:16.076Z,6.00
2019-01-16T16:22:52.555Z,5.93
2019-01-16T16:25:38.074Z,5.87
2019-01-16T16:28:18.183Z,5.84
2019-01-16T16:31:20.151Z,5.82
2019-01-16T16:34:05.549Z,5.79
2019-01-16T16:36:40.749Z,5.78
2019-01-16T16:39:26.713Z,5.85
2019-01-16T16:42:01.216Z,5.84
2019-01-16T16:44:56.977Z,5.85
2019-01-16T16:47:45.280Z,5.89
2019-01-16T16:50:30.435Z,5.85
2019-01-16T16:53:29.492Z,5.85
2019-01-16T16:56:25.035Z,5.89
2019-01-16T16:59:19.321Z,5.89
2019-01-16T17:02:03.748Z,5.90
2019-01-16T17:04:49.041Z,5.88
2019-01-16T17:07:44.958Z,5.91
2019-01-16T17:10:37.581Z,5.88
2019-01-16T17:13:14.134Z,5.92
2019-01-16T17:16:04.017Z,5.93
2019-01-16T17:18:49.362Z,5.93
2019-01-16T17:21:51.444Z,5.91
2019-01-16T17:24:30.404Z,5.90
2019-01-16T17:27:19.876Z,5.92
2019-01-16T17:30:18.535Z,5.93
2019-01-16T17:33:15.469Z,5.99
2019-01-16T17:36:00.367Z,6.02
2019-01-16T17:38:45.970Z,6.04
2019-01-16T17:41:51.105Z,6.04
2019-01-16T17:44:30.751Z,6.11
2019-01-16T17:47:35.953Z,6.10
2019-01-16T17:50:33.903Z,6.10
2019-01-16T17:53:21.886Z,6.14
2019-01-16T17:56:22.527Z,6.15
2019-01-16T17:59:08.127Z,6.19
2019-01-16T18:01:48.447Z,6.19
2019-01-16T18:04:44.379Z,6.18
2019-01-16T18:07:35.998Z,6.17
2019-01-16T18:10:30.081Z,6.13
2019-01-16T18:13:16.722Z,6.18
2019-01-16T18:16:21.553Z,6.16
2019-01-16T18:19:08.344Z,6.20
2019-01-16T18:21:57.938Z,6.16
2019-01-16T18:24:43.363Z,6.21
2019-01-16T18:27:42.315Z,6.26
2019-01-16T18:30:37.932Z,6.28
2019-01-16T18:33:14.600Z,6.21
2019-01-16T18:35:54.154Z,6.23
2019-01-16T18:38:39.491Z,6.28
2019-01-16T18:41:21.625Z,6.22
2019-01-16T18:44:08.580Z,6.22
2019-01-16T18:46:58.142Z,6.26
2019-01-16T18:49:57.139Z,6.25
2019-01-16T18:52:43.885Z,6.29
2019-01-16T18:55:31.371Z,6.32
2019-01-16T18:58:28.822Z,6.33
2019-01-16T19:01:11.562Z,6.35
2019-01-16T19:03:55.819Z,6.35
2019-01-16T19:07:02.809Z,6.46
2019-01-16T19:09:50.937Z,6.46
2019-01-16T19:12:36.648Z,6.33
2019-01-16T19:15:24.602Z,6.33
2019-01-16T19:18:11.351Z,6.29
2019-01-16T19:21:06.817Z,6.20
2019-01-16T19:23:48.817Z,6.36
2019-01-16T19:26:45.637Z,6.31
2019-01-16T19:29:30.012Z,6.29
2019-01-16T19:32:22.768Z,6.33
2019-01-16T19:35:08.011Z,6.30
2019-01-16T19:37:51.460Z,6.27
2019-01-16T19:40:38.110Z,6.19
2019-01-16T19:43:23.597Z,6.19
2019-01-16T19:46:10.057Z,6.27
2019-01-16T19:48:55.451Z,6.18
2019-01-16T19:51:50.058Z,6.27
2019-01-16T19:54:49.118Z,6.24
2019-01-16T19:57:38.438Z,6.22
2019-01-16T20:00:28.238Z,6.19
2019-01-16T20:03:20.055Z,6.14
2019-01-16T20:06:22.184Z,6.16
2019-01-16T20:09:07.408Z,6.25
2019-01-16T20:11:48.040Z,6.18
2019-01-16T20:14:44.181Z,6.26
2019-01-16T20:17:30.594Z,6.15
2019-01-16T20:20:08.795Z,6.13
2019-01-16T20:22:54.317Z,6.23
2019-01-16T20:25:41.355Z,6.13
2019-01-16T20:28:27.016Z,6.09
2019-01-16T20:31:16.344Z,6.11
2019-01-16T20:34:01.544Z,6.19
2019-01-16T20:36:47.278Z,6.14
2019-01-16T20:39:26.841Z,6.08
2019-01-16T20:42:09.937Z,6.09
2019-01-16T20:44:54.359Z,6.12
2019-01-16T20:47:39.629Z,6.09
2019-01-16T20:50:35.889Z,6.10
2019-01-16T20:53:29.018Z,6.09
2019-01-16T20:56:18.425Z,6.13
2019-01-16T20:59:05.159Z,6.12
2019-01-16T21:01:57.507Z,6.14
2019-01-16T21:04:53.068Z,6.13
2019-01-16T21:07:32.732Z,6.17
2019-01-16T21:10:56.464Z,6.20
2019-01-16T21:13:49.211Z,6.14
2019-01-16T21:16:34.660Z,6.15
2019-01-16T21:19:39.689Z,6.15
2019-01-16T21:22:29.157Z,6.15
2019-01-16T21:25:16.380Z,6.17
2019-01-16T21:27:57.485Z,6.19
2019-01-16T21:30:59.443Z,6.30
2019-01-16T21:33:48.889Z,6.22
2019-01-16T21:36:27.509Z,6.26
2019-01-16T21:39:26.563Z,6.26
2019-01-16T21:42:19.481Z,6.26
2019-01-16T21:45:09.238Z,6.27
2019-01-16T21:48:01.839Z,6.27
2019-01-16T21:50:57.289Z,6.35
2019-01-16T21:53:30.670Z,6.30
2019-01-16T21:56:23.472Z,6.28
2019-01-16T21:59:10.107Z,6.28
2019-01-16T22:01:59.673Z,6.37
2019-01-16T22:04:55.371Z,6.42
2019-01-16T22:07:40.857Z,6.42
2019-01-16T22:10:26.554Z,6.35
2019-01-16T22:13:10.650Z,6.44
2019-01-16T22:15:57.278Z,6.28
2019-01-16T22:18:59.421Z,6.27
2019-01-16T22:21:46.140Z,6.17
2019-01-16T22:24:31.550Z,6.38
2019-01-16T22:27:09.933Z,6.41
2019-01-16T22:30:11.967Z,6.32
2019-01-16T22:33:17.064Z,6.31
2019-01-16T22:36:22.029Z,6.28
2019-01-16T22:39:07.431Z,6.16
2019-01-16T22:41:45.321Z,6.07
2019-01-16T22:44:31.971Z,5.92
2019-01-16T22:47:17.308Z,5.89
2019-01-16T22:50:03.936Z,5.88
2019-01-16T22:53:05.503Z,5.84
2019-01-16T22:56:04.018Z,5.73
2019-01-16T22:58:54.440Z,5.64
2019-01-16T23:01:27.913Z,5.58
2019-01-16T23:04:29.597Z,5.60
2019-01-16T23:07:14.641Z,5.55
2019-01-16T23:10:09.023Z,5.57
2019-01-16T23:12:58.543Z,5.58
2019-01-16T23:15:51.251Z,5.49
2019-01-16T23:18:40.625Z,5.58
2019-01-16T23:21:33.403Z,5.53
2019-01-16T23:24:09.485Z,5.60
2019-01-16T23:26:48.191Z,5.48
2019-01-16T23:29:33.731Z,5.54
2019-01-16T23:32:26.510Z,5.52
2019-01-16T23:35:16.177Z,5.54
2019-01-16T23:38:05.363Z,5.51
2019-01-16T23:40:57.647Z,5.53
2019-01-16T23:43:39.519Z,5.67
2019-01-16T23:46:24.685Z,5.58
2019-01-16T23:52:10.458Z,5.50
2019-01-16T23:55:06.372Z,5.54
2019-01-16T23:57:54.694Z,5.44
